Eros Airport


Codes: FYWE/ERS
Name: Eros Airport
City: Windhoek
Country: Namibia
Elevation: 5575 ft.
Wikipedia:

Photos at Eros Airport


   Photos courtesy of SpottingLog. You can add your own sightings and photos by signing up for a free trial today.



No photos found.

Weather at Eros Airport


Time (UTC)DescriptionTempratureWindCloud coverageVisibilityPressureHumidity
26-Jun-2024 00:00Clear Sky13°C9 mph, E0%10000m1031hPa41%
26-Jun-2024 03:00Clear Sky11°C9 mph, E0%10000m1029hPa53%
26-Jun-2024 06:00Clear Sky8°C9 mph, E0%10000m1028hPa71%
26-Jun-2024 09:00Clear Sky14°C22 mph, NE0%10000m1026hPa51%
26-Jun-2024 12:00Clear Sky18°C20 mph, NE0%10000m1020hPa32%
26-Jun-2024 15:00Clear Sky18°C18 mph, NE0%10000m1019hPa30%
26-Jun-2024 18:00Clear Sky12°C9 mph, NE0%10000m1023hPa46%
26-Jun-2024 21:00Clear Sky10°C9 mph, NE0%10000m1024hPa56%
27-Jun-2024 00:00Clear Sky8°C11 mph, NE0%10000m1025hPa65%
27-Jun-2024 03:00Clear Sky8°C11 mph, NE0%10000m1024hPa68%
27-Jun-2024 06:00Clear Sky8°C11 mph, NE0%10000m1025hPa64%
27-Jun-2024 09:00Clear Sky15°C20 mph, NE0%10000m1024hPa41%
27-Jun-2024 12:00Clear Sky19°C13 mph, NE0%10000m1020hPa28%
27-Jun-2024 15:00Clear Sky19°C11 mph, N0%10000m1018hPa26%
27-Jun-2024 18:00Clear Sky12°C7 mph, NE6%10000m1021hPa41%
27-Jun-2024 21:00Few Clouds11°C7 mph, NE24%10000m1023hPa46%
28-Jun-2024 00:00Few Clouds9°C7 mph, NE13%10000m1023hPa55%
28-Jun-2024 03:00Few Clouds8°C7 mph, NE22%10000m1023hPa59%
28-Jun-2024 06:00Scattered Clouds8°C7 mph, NE27%10000m1024hPa62%
28-Jun-2024 09:00Clear Sky17°C13 mph, NE0%10000m1022hPa35%
28-Jun-2024 12:00Clear Sky21°C9 mph, N0%10000m1018hPa23%
28-Jun-2024 15:00Clear Sky20°C9 mph, NW2%10000m1017hPa23%
28-Jun-2024 18:00Clear Sky13°C4 mph, NW4%10000m1019hPa38%
28-Jun-2024 21:00Clear Sky12°C2 mph, SW2%10000m1020hPa48%
29-Jun-2024 00:00Clear Sky11°C4 mph, N3%10000m1020hPa45%
29-Jun-2024 03:00Clear Sky9°C4 mph, N5%10000m1021hPa55%
29-Jun-2024 06:00Clear Sky10°C4 mph, NE3%10000m1022hPa54%
29-Jun-2024 09:00Clear Sky18°C7 mph, NE0%10000m1021hPa31%
29-Jun-2024 12:00Clear Sky22°C7 mph, NW0%10000m1017hPa21%
29-Jun-2024 15:00Clear Sky21°C7 mph, NW4%10000m1016hPa20%
29-Jun-2024 18:00Scattered Clouds14°C4 mph, NW32%10000m1019hPa33%
29-Jun-2024 21:00Scattered Clouds13°C2 mph, S37%10000m1019hPa37%
30-Jun-2024 00:00Few Clouds12°C4 mph, SE22%10000m1020hPa42%
30-Jun-2024 03:00Clear Sky10°C4 mph, NE1%10000m1020hPa44%
30-Jun-2024 06:00Clear Sky11°C4 mph, NE1%10000m1021hPa44%
30-Jun-2024 09:00Clear Sky19°C9 mph, N0%10000m1021hPa26%
30-Jun-2024 12:00Clear Sky22°C9 mph, NW0%10000m1018hPa20%
30-Jun-2024 15:00Clear Sky21°C7 mph, NW2%10000m1017hPa20%
30-Jun-2024 18:00Clear Sky14°C2 mph, NW1%10000m1019hPa32%
30-Jun-2024 21:00Clear Sky12°C0 mph, NW0%10000m1021hPa43%